Time;durP1;ratioP1;P1;durP2;ratioP2;P2;SDS_P1;SDS_P2;PMS_P1;PMS_P2;Temp;Humidity;BMP_temperature;BMP_pressure;BME280_temperature;BME280_humidity;BME280_pressure;Samples;Min_cycle;Max_cycle;Signal;HPM_P1;HPM_P2
2022/03/03 00:01:19;;;;;;;9.27;5.83;;;;;;;;;;4983508;28;20101;-62
2022/03/03 00:03:44;;;;;;;11.40;6.00;;;;;;;;;;4994659;28;20177;-59
2022/03/03 00:06:09;;;;;;;12.73;6.40;;;;;;;;;;4988858;28;20079;-60
2022/03/03 00:08:35;;;;;;;11.93;6.30;;;;;;;;;;5000001;28;20098;-59
2022/03/03 00:11:00;;;;;;;9.10;5.57;;;;;;;;;;4997039;28;20338;-60
2022/03/03 00:13:25;;;;;;;10.93;5.93;;;;;;;;;;4996177;28;20305;-61
2022/03/03 00:15:50;;;;;;;10.63;5.90;;;;;;;;;;5003133;28;20157;-59
2022/03/03 00:18:15;;;;;;;10.00;5.83;;;;;;;;;;4994655;28;20126;-58
2022/03/03 00:20:41;;;;;;;9.23;6.10;;;;;;;;;;4999672;28;20194;-59
2022/03/03 00:23:06;;;;;;;10.47;5.57;;;;;;;;;;4996493;28;20248;-61
2022/03/03 00:25:33;;;;;;;9.90;5.63;;;;;;;;;;5006243;28;20831;-60
2022/03/03 00:27:58;;;;;;;8.90;5.35;;;;;;;;;;4991765;28;20172;-60
2022/03/03 00:30:23;;;;;;;8.00;5.23;;;;;;;;;;5005462;28;20106;-60
2022/03/03 00:32:48;;;;;;;10.90;5.63;;;;;;;;;;4992078;28;20071;-62
2022/03/03 00:35:13;;;;;;;9.43;5.27;;;;;;;;;;5009632;28;20102;-60
2022/03/03 00:37:39;;;;;;;11.10;6.00;;;;;;;;;;4999693;28;20441;-62
2022/03/03 00:40:04;;;;;;;8.67;5.63;;;;;;;;;;5004906;28;20102;-61
2022/03/03 00:42:30;;;;;;;8.95;5.40;;;;;;;;;;4992413;28;20098;-58
2022/03/03 00:44:55;;;;;;;10.05;5.85;;;;;;;;;;5003697;28;20082;-59
2022/03/03 00:47:20;;;;;;;9.87;5.50;;;;;;;;;;4994845;28;20192;-60
2022/03/03 00:49:45;;;;;;;9.37;5.60;;;;;;;;;;5002363;28;20591;-59
2022/03/03 00:52:11;;;;;;;8.70;5.30;;;;;;;;;;4997064;28;20109;-60
2022/03/03 00:54:36;;;;;;;9.33;5.53;;;;;;;;;;4999782;28;20117;-61
2022/03/03 00:57:01;;;;;;;9.37;5.50;;;;;;;;;;5004978;28;20546;-59
2022/03/03 00:59:26;;;;;;;9.17;5.40;;;;;;;;;;5001319;28;20289;-59
2022/03/03 01:01:51;;;;;;;8.27;5.20;;;;;;;;;;5011309;28;20645;-59
2022/03/03 01:04:18;;;;;;;9.57;5.53;;;;;;;;;;5004656;28;20106;-61
2022/03/03 01:06:43;;;;;;;9.73;5.45;;;;;;;;;;5003751;28;20099;-61
2022/03/03 01:09:08;;;;;;;9.03;5.43;;;;;;;;;;5004880;28;20082;-59
2022/03/03 01:11:33;;;;;;;8.57;5.80;;;;;;;;;;4991103;28;20094;-59
2022/03/03 01:13:59;;;;;;;10.20;5.13;;;;;;;;;;5005184;28;20490;-59
2022/03/03 01:16:24;;;;;;;8.90;5.30;;;;;;;;;;4992323;28;20615;-60
2022/03/03 01:18:49;;;;;;;10.63;5.03;;;;;;;;;;5004669;28;20393;-60
2022/03/03 01:21:14;;;;;;;9.27;5.70;;;;;;;;;;4993027;28;20100;-60
2022/03/03 01:23:39;;;;;;;8.50;5.13;;;;;;;;;;5013876;28;20197;-60
2022/03/03 01:26:05;;;;;;;10.03;5.80;;;;;;;;;;4994767;28;20162;-59
2022/03/03 01:28:30;;;;;;;11.63;6.07;;;;;;;;;;5005159;28;20078;-60
2022/03/03 01:30:55;;;;;;;7.43;4.97;;;;;;;;;;5010477;28;20542;-60
2022/03/03 01:33:20;;;;;;;7.60;4.97;;;;;;;;;;4996854;28;20406;-60
2022/03/03 01:35:45;;;;;;;10.07;5.27;;;;;;;;;;5002352;28;20649;-58
2022/03/03 01:38:11;;;;;;;9.90;5.43;;;;;;;;;;5000204;28;20336;-62
2022/03/03 01:40:36;;;;;;;10.53;5.90;;;;;;;;;;5004605;28;20148;-60
2022/03/03 01:43:01;;;;;;;9.73;5.78;;;;;;;;;;4996307;28;20384;-60
2022/03/03 01:45:27;;;;;;;10.30;5.57;;;;;;;;;;4999168;28;20078;-59
2022/03/03 01:47:52;;;;;;;10.15;5.28;;;;;;;;;;4997770;28;20111;-59
2022/03/03 01:50:17;;;;;;;9.10;5.20;;;;;;;;;;4996720;28;20165;-58
2022/03/03 01:52:42;;;;;;;11.27;5.77;;;;;;;;;;5000363;28;20082;-59
2022/03/03 01:55:08;;;;;;;11.67;5.90;;;;;;;;;;5001490;28;20351;-61
2022/03/03 01:57:34;;;;;;;8.57;5.72;;;;;;;;;;5003600;28;20826;-61
2022/03/03 01:59:59;;;;;;;9.50;5.23;;;;;;;;;;5000477;28;20109;-61
2022/03/03 02:02:25;;;;;;;9.50;5.60;;;;;;;;;;5001940;28;20098;-60
2022/03/03 02:04:51;;;;;;;9.70;6.00;;;;;;;;;;4991262;28;20368;-62
2022/03/03 02:07:16;;;;;;;9.63;5.60;;;;;;;;;;4991864;28;20517;-61
2022/03/03 02:09:41;;;;;;;10.20;5.37;;;;;;;;;;5000872;28;20097;-61
2022/03/03 02:12:07;;;;;;;8.30;5.10;;;;;;;;;;5003450;28;20110;-59
2022/03/03 02:14:41;;;;;;;8.57;4.95;;;;;;;;;;4991647;28;20619;-59
2022/03/03 02:17:07;;;;;;;9.43;5.20;;;;;;;;;;5013047;28;20493;-59
2022/03/03 02:19:32;;;;;;;9.50;5.20;;;;;;;;;;4996278;28;20102;-62
2022/03/03 02:21:57;;;;;;;11.37;4.93;;;;;;;;;;5003737;28;20078;-60
2022/03/03 02:24:22;;;;;;;8.00;5.23;;;;;;;;;;5003067;28;20845;-61
2022/03/03 02:26:47;;;;;;;9.00;4.87;;;;;;;;;;4995953;28;20129;-60
2022/03/03 02:29:13;;;;;;;9.07;4.90;;;;;;;;;;4998083;28;20517;-60
2022/03/03 02:31:38;;;;;;;8.20;5.10;;;;;;;;;;5001727;28;20629;-60
2022/03/03 02:34:03;;;;;;;8.80;5.22;;;;;;;;;;4993867;28;20347;-59
2022/03/03 02:36:28;;;;;;;8.57;5.33;;;;;;;;;;4999410;28;20281;-61
2022/03/03 02:38:57;;;;;;;8.70;5.17;;;;;;;;;;4994873;28;20157;-59
2022/03/03 02:41:22;;;;;;;9.18;5.25;;;;;;;;;;5001021;28;20587;-62
2022/03/03 02:43:48;;;;;;;7.53;4.57;;;;;;;;;;4992280;28;20144;-61
2022/03/03 02:46:13;;;;;;;8.63;5.07;;;;;;;;;;5002960;28;20090;-60
2022/03/03 02:48:38;;;;;;;9.67;5.50;;;;;;;;;;5002754;28;20120;-61
2022/03/03 02:51:03;;;;;;;9.57;5.22;;;;;;;;;;5002973;28;20118;-61
2022/03/03 02:53:29;;;;;;;8.83;4.93;;;;;;;;;;4990343;28;20431;-62
2022/03/03 02:55:54;;;;;;;10.17;4.83;;;;;;;;;;5003028;28;20531;-62
2022/03/03 02:58:19;;;;;;;9.05;5.20;;;;;;;;;;4988216;28;20102;-60
2022/03/03 03:00:46;;;;;;;10.18;5.22;;;;;;;;;;5003114;28;20436;-60
2022/03/03 03:03:12;;;;;;;9.00;5.57;;;;;;;;;;5001042;28;20534;-61
2022/03/03 03:05:37;;;;;;;10.07;5.47;;;;;;;;;;5003162;28;20144;-61
2022/03/03 03:08:03;;;;;;;10.05;5.35;;;;;;;;;;4994156;28;20129;-59
2022/03/03 03:10:28;;;;;;;7.78;5.03;;;;;;;;;;5022608;28;20094;-59
2022/03/03 03:12:53;;;;;;;10.30;5.57;;;;;;;;;;4991611;28;20952;-60
2022/03/03 03:15:18;;;;;;;9.83;4.97;;;;;;;;;;5000923;28;20118;-61
2022/03/03 03:17:44;;;;;;;8.77;4.73;;;;;;;;;;5003286;28;20528;-56
2022/03/03 03:20:09;;;;;;;9.03;4.73;;;;;;;;;;4995240;28;20349;-61
2022/03/03 03:22:35;;;;;;;7.93;5.40;;;;;;;;;;5002608;28;20117;-60
2022/03/03 03:25:00;;;;;;;8.73;5.15;;;;;;;;;;4989696;28;20524;-60
2022/03/03 03:27:26;;;;;;;8.55;5.13;;;;;;;;;;5002533;28;20510;-61
2022/03/03 03:29:51;;;;;;;8.30;5.10;;;;;;;;;;4991559;28;20587;-62
2022/03/03 03:32:16;;;;;;;8.00;4.97;;;;;;;;;;5001240;28;20176;-59
2022/03/03 03:34:41;;;;;;;8.40;4.93;;;;;;;;;;4992657;28;20158;-61
2022/03/03 03:37:06;;;;;;;8.50;5.10;;;;;;;;;;4999204;28;20075;-59
2022/03/03 03:39:32;;;;;;;9.33;5.03;;;;;;;;;;5002810;28;20420;-61
2022/03/03 03:41:57;;;;;;;8.10;5.10;;;;;;;;;;5002997;28;20161;-61
2022/03/03 03:44:22;;;;;;;8.17;5.00;;;;;;;;;;4997117;28;20341;-59
2022/03/03 03:46:47;;;;;;;9.67;5.23;;;;;;;;;;5002545;28;20094;-60
2022/03/03 03:49:13;;;;;;;9.87;5.57;;;;;;;;;;4992004;28;20101;-61
2022/03/03 03:51:38;;;;;;;8.97;4.87;;;;;;;;;;5006224;28;20341;-60
2022/03/03 03:54:03;;;;;;;8.80;4.77;;;;;;;;;;5006163;28;20635;-60
2022/03/03 03:56:28;;;;;;;11.83;6.00;;;;;;;;;;5006476;28;20140;-58
2022/03/03 03:58:54;;;;;;;7.87;4.90;;;;;;;;;;4996275;28;20106;-59
2022/03/03 04:01:19;;;;;;;9.27;5.57;;;;;;;;;;5006344;28;20458;-63
2022/03/03 04:03:44;;;;;;;9.73;5.30;;;;;;;;;;5005072;28;20142;-60
2022/03/03 04:06:09;;;;;;;9.60;5.17;;;;;;;;;;5004505;28;20171;-60
2022/03/03 04:08:34;;;;;;;8.33;4.90;;;;;;;;;;5006161;28;20100;-60
2022/03/03 04:11:00;;;;;;;9.03;4.97;;;;;;;;;;4999895;28;20103;-60
2022/03/03 04:13:25;;;;;;;7.23;4.60;;;;;;;;;;5010007;28;20344;-62
2022/03/03 04:15:50;;;;;;;8.70;5.17;;;;;;;;;;4994492;28;20513;-60
2022/03/03 04:18:15;;;;;;;6.90;4.67;;;;;;;;;;5004806;28;20572;-60
2022/03/03 04:20:40;;;;;;;8.17;4.73;;;;;;;;;;4994137;28;20075;-60
2022/03/03 04:23:06;;;;;;;8.47;4.97;;;;;;;;;;5003685;28;20172;-57
2022/03/03 04:25:31;;;;;;;8.63;5.00;;;;;;;;;;4995613;28;20145;-61
2022/03/03 04:27:57;;;;;;;8.10;4.82;;;;;;;;;;5002400;28;20121;-60
2022/03/03 04:30:22;;;;;;;9.10;5.03;;;;;;;;;;5001720;28;20097;-61
2022/03/03 04:32:47;;;;;;;11.10;5.37;;;;;;;;;;4999124;28;20321;-60
2022/03/03 04:35:12;;;;;;;12.53;6.00;;;;;;;;;;5005281;28;20192;-59
2022/03/03 04:37:38;;;;;;;9.90;5.30;;;;;;;;;;5005888;28;20067;-60
2022/03/03 04:40:04;;;;;;;8.32;4.88;;;;;;;;;;4999035;28;20106;-61
2022/03/03 04:42:29;;;;;;;8.95;5.65;;;;;;;;;;4997144;28;20122;-61
2022/03/03 04:44:54;;;;;;;10.30;6.00;;;;;;;;;;5002486;28;20075;-59
2022/03/03 04:47:19;;;;;;;10.77;6.00;;;;;;;;;;4994753;28;20113;-59
2022/03/03 04:49:44;;;;;;;9.73;5.30;;;;;;;;;;5004221;28;20398;-60
2022/03/03 04:52:10;;;;;;;8.70;5.10;;;;;;;;;;4992987;28;20102;-59
2022/03/03 04:54:35;;;;;;;8.63;5.30;;;;;;;;;;5005077;28;20110;-61
2022/03/03 04:57:00;;;;;;;8.00;5.10;;;;;;;;;;5004193;28;20162;-61
2022/03/03 04:59:26;;;;;;;8.80;4.90;;;;;;;;;;4997826;28;20158;-62
2022/03/03 05:01:51;;;;;;;12.03;5.23;;;;;;;;;;4998499;28;20348;-60
2022/03/03 05:04:19;;;;;;;9.27;5.30;;;;;;;;;;5005003;28;20329;-60
2022/03/03 05:06:45;;;;;;;9.45;4.95;;;;;;;;;;4996423;28;20125;-61
2022/03/03 05:09:11;;;;;;;8.75;5.13;;;;;;;;;;5005058;28;20097;-59
2022/03/03 05:11:36;;;;;;;7.70;4.72;;;;;;;;;;4991242;28;20146;-61
2022/03/03 05:14:01;;;;;;;8.80;5.30;;;;;;;;;;5004440;28;20166;-60
2022/03/03 05:16:26;;;;;;;8.10;4.50;;;;;;;;;;5002357;28;20071;-60
2022/03/03 05:18:51;;;;;;;8.57;5.00;;;;;;;;;;4991370;28;20829;-62
2022/03/03 05:21:17;;;;;;;9.40;5.37;;;;;;;;;;5002922;28;20605;-63
2022/03/03 05:23:42;;;;;;;9.23;5.13;;;;;;;;;;5003060;28;20121;-62
2022/03/03 05:26:07;;;;;;;10.67;5.23;;;;;;;;;;4997026;28;20078;-60
2022/03/03 05:28:32;;;;;;;10.20;5.60;;;;;;;;;;4999555;28;20102;-61
2022/03/03 05:30:58;;;;;;;10.33;5.80;;;;;;;;;;4996665;28;20110;-62
2022/03/03 05:33:23;;;;;;;11.10;5.90;;;;;;;;;;5000680;28;20067;-62
2022/03/03 05:35:48;;;;;;;10.77;5.93;;;;;;;;;;4998058;28;20562;-60
2022/03/03 05:38:14;;;;;;;10.38;5.38;;;;;;;;;;5006077;28;20613;-60
2022/03/03 05:40:39;;;;;;;10.67;5.53;;;;;;;;;;5004369;28;20071;-62
2022/03/03 05:43:04;;;;;;;11.60;5.97;;;;;;;;;;5003807;28;20420;-60
2022/03/03 05:45:32;;;;;;;13.97;7.87;;;;;;;;;;4989944;28;20079;-61
2022/03/03 05:47:57;;;;;;;11.90;6.90;;;;;;;;;;5015100;28;20187;-63
2022/03/03 05:50:22;;;;;;;11.97;5.90;;;;;;;;;;5014907;28;20602;-61
2022/03/03 05:52:47;;;;;;;11.57;5.47;;;;;;;;;;4991362;28;20136;-61
2022/03/03 05:55:12;;;;;;;11.57;6.13;;;;;;;;;;5001789;28;20185;-60
2022/03/03 05:57:38;;;;;;;11.60;6.93;;;;;;;;;;4999274;28;20071;-62
2022/03/03 06:00:08;;;;;;;14.90;6.80;;;;;;;;;;5000062;28;20109;-60
2022/03/03 06:02:33;;;;;;;12.02;6.00;;;;;;;;;;5003547;28;20563;-60
2022/03/03 06:04:58;;;;;;;10.70;6.13;;;;;;;;;;5001776;28;20074;-61
2022/03/03 06:07:25;;;;;;;9.30;5.10;;;;;;;;;;4998536;28;20385;-62
2022/03/03 06:09:55;;;;;;;9.95;5.82;;;;;;;;;;5003067;28;20097;-60
2022/03/03 06:12:38;;;;;;;9.30;5.32;;;;;;;;;;5001992;28;20102;-60
2022/03/03 06:15:04;;;;;;;8.90;5.30;;;;;;;;;;4998447;28;20109;-59
2022/03/03 06:17:29;;;;;;;9.85;5.13;;;;;;;;;;4994125;28;20075;-60
2022/03/03 06:19:54;;;;;;;10.27;6.10;;;;;;;;;;5001301;28;20563;-59
2022/03/03 06:22:20;;;;;;;10.23;6.17;;;;;;;;;;5003209;28;20564;-59
2022/03/03 06:24:45;;;;;;;12.00;5.60;;;;;;;;;;4989759;28;20320;-62
2022/03/03 06:27:10;;;;;;;9.88;5.45;;;;;;;;;;5008449;28;20547;-60
2022/03/03 06:29:36;;;;;;;10.60;5.73;;;;;;;;;;5002323;28;20825;-60
2022/03/03 06:32:01;;;;;;;11.57;5.60;;;;;;;;;;4989480;28;20330;-60
2022/03/03 06:34:26;;;;;;;12.77;7.03;;;;;;;;;;5003328;28;20607;-60
2022/03/03 06:36:52;;;;;;;9.53;5.80;;;;;;;;;;5010691;28;20070;-61
2022/03/03 06:39:17;;;;;;;9.57;5.63;;;;;;;;;;5008149;28;20372;-62
2022/03/03 06:41:42;;;;;;;10.10;5.97;;;;;;;;;;5003387;28;20866;-60
2022/03/03 06:44:07;;;;;;;8.90;5.30;;;;;;;;;;5009485;28;20589;-61
2022/03/03 06:46:33;;;;;;;10.75;5.32;;;;;;;;;;5004319;28;20093;-61
2022/03/03 06:48:59;;;;;;;7.72;4.72;;;;;;;;;;5007518;28;20548;-59
2022/03/03 06:51:24;;;;;;;9.85;5.07;;;;;;;;;;5002347;28;20464;-63
2022/03/03 06:53:50;;;;;;;8.90;5.17;;;;;;;;;;5013356;28;20074;-62
2022/03/03 06:56:15;;;;;;;10.88;5.57;;;;;;;;;;4999155;28;20132;-62
2022/03/03 06:58:41;;;;;;;10.73;5.23;;;;;;;;;;4996461;28;20125;-60
2022/03/03 07:01:09;;;;;;;9.45;5.70;;;;;;;;;;4999458;28;20673;-61
2022/03/03 07:03:35;;;;;;;9.27;5.53;;;;;;;;;;4994827;28;20098;-59
2022/03/03 07:06:01;;;;;;;9.13;5.28;;;;;;;;;;4996930;28;20077;-62
2022/03/03 07:08:26;;;;;;;9.88;5.80;;;;;;;;;;4996202;28;20121;-60
2022/03/03 07:10:51;;;;;;;11.67;6.20;;;;;;;;;;4981227;28;20106;-62
2022/03/03 07:13:17;;;;;;;12.20;6.93;;;;;;;;;;4992220;28;20544;-63
2022/03/03 07:15:52;;;;;;;11.27;6.05;;;;;;;;;;4993399;28;20102;-61
2022/03/03 07:18:19;;;;;;;10.65;6.50;;;;;;;;;;4991928;28;20098;-61
2022/03/03 07:20:44;;;;;;;9.82;5.72;;;;;;;;;;4992909;28;20079;-61
2022/03/03 07:23:13;;;;;;;11.67;6.27;;;;;;;;;;4995841;28;20340;-61
2022/03/03 07:25:43;;;;;;;10.85;5.68;;;;;;;;;;5000747;28;20320;-61
2022/03/03 07:28:09;;;;;;;12.52;7.05;;;;;;;;;;5002394;28;20152;-61
2022/03/03 07:30:42;;;;;;;11.15;6.43;;;;;;;;;;4996017;28;20110;-61
2022/03/03 07:33:11;;;;;;;11.85;7.00;;;;;;;;;;4982620;28;20584;-61
2022/03/03 07:35:36;;;;;;;12.50;7.88;;;;;;;;;;5000973;28;20411;-61
2022/03/03 07:38:21;;;;;;;14.23;9.40;;;;;;;;;;4995389;28;20578;-60
2022/03/03 07:40:47;;;;;;;16.60;10.82;;;;;;;;;;5002676;28;20156;-60
2022/03/03 07:43:13;;;;;;;17.55;11.32;;;;;;;;;;4991720;28;20681;-61
2022/03/03 07:45:38;;;;;;;17.65;12.18;;;;;;;;;;5001541;28;20077;-62
2022/03/03 07:48:03;;;;;;;24.42;15.55;;;;;;;;;;5002152;28;20105;-61
2022/03/03 07:50:29;;;;;;;30.75;21.73;;;;;;;;;;4997666;28;20098;-63
2022/03/03 07:52:54;;;;;;;41.90;28.80;;;;;;;;;;5000773;28;20074;-62
2022/03/03 07:55:20;;;;;;;48.78;30.05;;;;;;;;;;4987659;28;20337;-61
2022/03/03 07:58:00;;;;;;;46.78;32.28;;;;;;;;;;4991577;28;20296;-62
2022/03/03 08:00:27;;;;;;;47.40;31.45;;;;;;;;;;4969852;28;20106;-61
2022/03/03 08:02:53;;;;;;;41.08;28.40;;;;;;;;;;4979887;28;20596;-61
2022/03/03 08:05:18;;;;;;;40.50;26.45;;;;;;;;;;5009562;28;20067;-61
2022/03/03 08:07:44;;;;;;;33.70;24.27;;;;;;;;;;5006859;28;20509;-62
2022/03/03 08:10:10;;;;;;;32.97;22.20;;;;;;;;;;4999049;28;20105;-61
2022/03/03 08:12:35;;;;;;;29.80;21.42;;;;;;;;;;4976002;28;20079;-61
2022/03/03 08:15:00;;;;;;;32.23;21.80;;;;;;;;;;4975946;28;20738;-61
2022/03/03 08:17:26;;;;;;;33.47;21.97;;;;;;;;;;4976650;28;20079;-61
2022/03/03 08:19:55;;;;;;;33.03;22.52;;;;;;;;;;4992467;28;20429;-61
2022/03/03 08:22:21;;;;;;;32.30;22.80;;;;;;;;;;4999699;28;20109;-61
2022/03/03 08:24:47;;;;;;;30.13;21.77;;;;;;;;;;5000772;28;20089;-63
2022/03/03 08:27:12;;;;;;;30.27;22.10;;;;;;;;;;5017277;28;20112;-62
2022/03/03 08:29:37;;;;;;;27.50;17.67;;;;;;;;;;5010351;28;20089;-61
2022/03/03 08:32:03;;;;;;;26.35;17.85;;;;;;;;;;5005477;28;20769;-63
2022/03/03 08:34:43;;;;;;;29.27;19.60;;;;;;;;;;4997918;28;20095;-61
2022/03/03 08:37:11;;;;;;;32.72;20.38;;;;;;;;;;4978787;28;20205;-62
2022/03/03 08:39:38;;;;;;;27.40;17.95;;;;;;;;;;4977381;28;20604;-60
2022/03/03 08:42:04;;;;;;;27.73;17.38;;;;;;;;;;4970566;28;20482;-61
2022/03/03 08:44:31;;;;;;;27.10;18.40;;;;;;;;;;4985729;28;20099;-61
2022/03/03 08:46:57;;;;;;;23.00;15.23;;;;;;;;;;4996073;28;20256;-61
2022/03/03 08:49:22;;;;;;;23.70;15.55;;;;;;;;;;4997668;28;20087;-62
2022/03/03 08:51:47;;;;;;;24.27;15.23;;;;;;;;;;4998129;28;20452;-62
2022/03/03 08:54:13;;;;;;;23.93;16.20;;;;;;;;;;4990314;28;20508;-60
2022/03/03 08:56:39;;;;;;;21.27;14.27;;;;;;;;;;4999583;28;20113;-62
2022/03/03 08:59:04;;;;;;;25.48;17.92;;;;;;;;;;5001577;28;20641;-60
2022/03/03 09:01:30;;;;;;;28.50;19.83;;;;;;;;;;5009820;28;20086;-61
2022/03/03 09:03:56;;;;;;;25.43;17.17;;;;;;;;;;4999903;28;20229;-62
2022/03/03 09:06:21;;;;;;;23.48;17.33;;;;;;;;;;5006514;28;20079;-61
2022/03/03 09:08:46;;;;;;;23.90;16.23;;;;;;;;;;5004161;28;20535;-60
2022/03/03 09:11:12;;;;;;;24.63;16.03;;;;;;;;;;5004218;28;20107;-60
2022/03/03 09:13:37;;;;;;;26.60;17.70;;;;;;;;;;5002590;28;20070;-61
2022/03/03 09:16:02;;;;;;;28.07;18.90;;;;;;;;;;5001408;28;20349;-61
2022/03/03 09:18:27;;;;;;;20.83;14.30;;;;;;;;;;5001890;28;20593;-58
2022/03/03 09:20:53;;;;;;;24.57;17.33;;;;;;;;;;5002564;28;20317;-62
2022/03/03 09:23:18;;;;;;;30.33;20.13;;;;;;;;;;5001862;28;20141;-62
2022/03/03 09:25:43;;;;;;;23.10;13.17;;;;;;;;;;5003385;28;20074;-73
2022/03/03 09:28:08;;;;;;;29.90;22.37;;;;;;;;;;5008035;28;20098;-71
2022/03/03 09:30:34;;;;;;;35.30;21.77;;;;;;;;;;5003660;28;20105;-72
2022/03/03 09:32:59;;;;;;;29.30;20.42;;;;;;;;;;5002097;28;20523;-74
2022/03/03 09:35:26;;;;;;;23.20;17.27;;;;;;;;;;5001440;28;20098;-72
2022/03/03 09:37:51;;;;;;;30.70;20.38;;;;;;;;;;5002726;28;20165;-74
2022/03/03 09:40:16;;;;;;;20.45;14.43;;;;;;;;;;5001719;28;20363;-70
2022/03/03 09:42:41;;;;;;;22.73;14.37;;;;;;;;;;5001148;28;20098;-72
2022/03/03 09:45:08;;;;;;;23.37;14.73;;;;;;;;;;4991196;28;20082;-73
2022/03/03 09:47:34;;;;;;;30.67;18.13;;;;;;;;;;4998590;28;20101;-73
2022/03/03 09:49:59;;;;;;;35.97;20.90;;;;;;;;;;4996907;28;20114;-73
2022/03/03 09:52:24;;;;;;;26.17;18.42;;;;;;;;;;4994310;28;20130;-72
2022/03/03 09:54:50;;;;;;;37.47;22.87;;;;;;;;;;5002350;28;20201;-73
2022/03/03 09:57:16;;;;;;;41.10;22.23;;;;;;;;;;4999895;28;20184;-72
2022/03/03 09:59:42;;;;;;;29.65;17.00;;;;;;;;;;4996232;28;20102;-73
2022/03/03 10:02:07;;;;;;;23.90;15.70;;;;;;;;;;5003476;28;20088;-73
2022/03/03 10:04:33;;;;;;;30.30;18.87;;;;;;;;;;4991756;28;20067;-71
2022/03/03 10:07:02;;;;;;;23.98;14.77;;;;;;;;;;4995122;28;20249;-72
2022/03/03 10:09:27;;;;;;;25.63;14.60;;;;;;;;;;5006839;28;20519;-74
2022/03/03 10:12:02;;;;;;;25.63;16.67;;;;;;;;;;4990764;28;20105;-71
2022/03/03 10:14:31;;;;;;;17.25;10.52;;;;;;;;;;4998696;28;20152;-71
2022/03/03 10:16:57;;;;;;;26.08;13.23;;;;;;;;;;4993498;28;20523;-74
2022/03/03 10:19:22;;;;;;;17.43;10.93;;;;;;;;;;5002403;28;20204;-74
2022/03/03 10:21:47;;;;;;;15.57;9.23;;;;;;;;;;4991885;28;20085;-71
2022/03/03 10:24:21;;;;;;;18.57;12.57;;;;;;;;;;4988321;28;20133;-73
2022/03/03 10:26:47;;;;;;;20.90;13.68;;;;;;;;;;5008647;28;20182;-72
2022/03/03 10:29:16;;;;;;;19.40;13.15;;;;;;;;;;5003773;28;20556;-72
2022/03/03 10:31:49;;;;;;;19.55;12.07;;;;;;;;;;4994019;28;20428;-73
2022/03/03 10:34:26;;;;;;;20.60;10.75;;;;;;;;;;4996938;28;20215;-74
2022/03/03 10:36:58;;;;;;;18.45;12.00;;;;;;;;;;5006332;28;20121;-74
2022/03/03 10:39:23;;;;;;;28.92;13.75;;;;;;;;;;4997677;28;20098;-72
2022/03/03 10:41:53;;;;;;;23.93;12.87;;;;;;;;;;4991365;28;20516;-71
2022/03/03 10:44:22;;;;;;;16.95;9.35;;;;;;;;;;5000228;28;20098;-73
2022/03/03 10:47:00;;;;;;;20.00;11.30;;;;;;;;;;4995523;28;20112;-71
2022/03/03 10:49:25;;;;;;;24.37;12.97;;;;;;;;;;4999814;28;20094;-74
2022/03/03 10:51:50;;;;;;;18.10;9.68;;;;;;;;;;5005116;28;20105;-74
2022/03/03 10:54:16;;;;;;;21.57;9.23;;;;;;;;;;4990915;28;20106;-74
2022/03/03 10:56:42;;;;;;;22.60;12.13;;;;;;;;;;5001389;28;20517;-71
2022/03/03 10:59:08;;;;;;;27.33;13.13;;;;;;;;;;4998375;28;20180;-69
2022/03/03 11:01:34;;;;;;;26.88;13.80;;;;;;;;;;4995534;28;20132;-72
2022/03/03 11:04:00;;;;;;;17.60;10.67;;;;;;;;;;5003038;28;20227;-74
2022/03/03 11:06:29;;;;;;;16.27;8.20;;;;;;;;;;5001576;28;20103;-70
2022/03/03 11:08:54;;;;;;;13.63;7.80;;;;;;;;;;4994871;28;20082;-72
2022/03/03 11:11:20;;;;;;;19.50;11.32;;;;;;;;;;4987837;28;20205;-73
2022/03/03 11:13:47;;;;;;;14.20;8.73;;;;;;;;;;4994585;28;20070;-74
2022/03/03 11:16:13;;;;;;;24.02;11.90;;;;;;;;;;4998613;28;20126;-73
2022/03/03 11:18:38;;;;;;;19.20;11.57;;;;;;;;;;4988593;28;20120;-70
2022/03/03 11:21:03;;;;;;;10.07;7.07;;;;;;;;;;4988202;28;20064;-70
2022/03/03 11:23:39;;;;;;;21.07;10.97;;;;;;;;;;5006487;28;20111;-72
2022/03/03 11:26:04;;;;;;;24.58;11.32;;;;;;;;;;4994218;28;20062;-73
2022/03/03 11:28:36;;;;;;;25.27;11.93;;;;;;;;;;4989796;28;20084;-70
2022/03/03 11:31:20;;;;;;;23.40;11.57;;;;;;;;;;4988881;28;20100;-73
2022/03/03 11:33:45;;;;;;;26.83;10.57;;;;;;;;;;4996682;28;20155;-72
2022/03/03 11:36:12;;;;;;;20.33;10.40;;;;;;;;;;4994531;28;20176;-70
2022/03/03 11:38:54;;;;;;;11.27;8.00;;;;;;;;;;4992563;28;20078;-73
2022/03/03 11:41:23;;;;;;;16.05;9.68;;;;;;;;;;5002514;28;20554;-70
2022/03/03 11:43:49;;;;;;;15.05;8.98;;;;;;;;;;4989362;28;20135;-70
2022/03/03 11:46:34;;;;;;;12.10;7.57;;;;;;;;;;4999442;28;20064;-69
2022/03/03 11:49:10;;;;;;;22.00;11.55;;;;;;;;;;4998574;28;20105;-68
2022/03/03 11:51:35;;;;;;;20.02;10.38;;;;;;;;;;4994487;28;20097;-71
2022/03/03 11:54:07;;;;;;;17.43;9.43;;;;;;;;;;4996263;28;20165;-74
2022/03/03 11:56:32;;;;;;;18.65;10.40;;;;;;;;;;5005379;28;20309;-69
2022/03/03 11:59:10;;;;;;;18.73;8.53;;;;;;;;;;5006261;28;20149;-71
2022/03/03 12:01:35;;;;;;;;;;;;;;;;;;5010449;28;20104;-71
2022/03/03 12:04:02;;;;;;;12.10;7.20;;;;;;;;;;4995784;28;20068;-71
2022/03/03 12:06:37;;;;;;;10.68;7.45;;;;;;;;;;5000456;28;20084;-70
2022/03/03 12:09:15;;;;;;;17.27;9.98;;;;;;;;;;5000624;28;20495;-68
2022/03/03 12:11:40;;;;;;;14.35;8.50;;;;;;;;;;4987790;28;20084;-70
2022/03/03 12:14:05;;;;;;;16.07;8.03;;;;;;;;;;4990328;28;20090;-69
2022/03/03 12:16:34;;;;;;;13.60;8.50;;;;;;;;;;5021481;28;20062;-70
2022/03/03 12:19:09;;;;;;;12.70;7.53;;;;;;;;;;5025278;28;20179;-72
2022/03/03 12:21:37;;;;;;;11.73;7.22;;;;;;;;;;5023147;28;20051;-68
2022/03/03 12:24:15;;;;;;;12.98;8.00;;;;;;;;;;4990688;28;20099;-70
2022/03/03 12:27:03;;;;;;;19.60;9.88;;;;;;;;;;4990001;28;20088;-73
2022/03/03 12:29:48;;;;;;;15.07;7.20;;;;;;;;;;4982402;28;20182;-71
2022/03/03 12:32:29;;;;;;;16.75;7.82;;;;;;;;;;4978773;28;20084;-71
2022/03/03 12:34:55;;;;;;;11.35;7.32;;;;;;;;;;4998400;28;20147;-70
2022/03/03 12:37:20;;;;;;;21.48;8.07;;;;;;;;;;4999434;28;20057;-70
2022/03/03 12:39:49;;;;;;;14.18;7.68;;;;;;;;;;5019111;28;20079;-73
2022/03/03 12:42:21;;;;;;;14.77;7.85;;;;;;;;;;5002424;28;20813;-72
2022/03/03 12:44:50;;;;;;;15.63;9.00;;;;;;;;;;4995974;28;20047;-72
2022/03/03 12:47:15;;;;;;;16.55;8.02;;;;;;;;;;5016832;28;20109;-72
2022/03/03 12:49:41;;;;;;;12.80;8.07;;;;;;;;;;5004501;28;20056;-72
2022/03/03 12:52:06;;;;;;;12.10;7.30;;;;;;;;;;4996062;28;20163;-71
2022/03/03 12:54:31;;;;;;;13.33;8.00;;;;;;;;;;5001439;28;20094;-72
2022/03/03 12:57:03;;;;;;;10.07;6.23;;;;;;;;;;4996749;28;20032;-69
2022/03/03 12:59:31;;;;;;;9.73;6.30;;;;;;;;;;4987360;28;20525;-71
2022/03/03 13:01:56;;;;;;;12.30;7.25;;;;;;;;;;5006566;28;20407;-73
2022/03/03 13:04:23;;;;;;;11.50;6.53;;;;;;;;;;5011360;28;20041;-73
2022/03/03 13:06:48;;;;;;;10.85;6.32;;;;;;;;;;4999710;28;20658;-70
2022/03/03 13:09:14;;;;;;;11.73;6.47;;;;;;;;;;5004767;28;20116;-72
2022/03/03 13:11:39;;;;;;;11.07;6.57;;;;;;;;;;5013496;28;20053;-69
2022/03/03 13:14:07;;;;;;;10.77;6.47;;;;;;;;;;5011234;28;20126;-70
2022/03/03 13:16:36;;;;;;;8.52;5.80;;;;;;;;;;5003554;28;20541;-70
2022/03/03 13:19:02;;;;;;;9.15;6.13;;;;;;;;;;4991281;28;20527;-70
2022/03/03 13:21:28;;;;;;;8.95;5.72;;;;;;;;;;4994851;28;20026;-70
2022/03/03 13:23:54;;;;;;;10.40;6.10;;;;;;;;;;4998022;28;20055;-70
2022/03/03 13:26:19;;;;;;;7.90;5.30;;;;;;;;;;4993251;28;20030;-71
2022/03/03 13:28:45;;;;;;;10.77;5.50;;;;;;;;;;4991617;28;20108;-71
2022/03/03 13:31:11;;;;;;;;;;;;;;;;;;4995280;28;20046;-73
2022/03/03 13:33:59;;;;;;;9.88;5.45;;;;;;;;;;4998751;28;19913;-71
2022/03/03 13:36:28;;;;;;;9.77;5.28;;;;;;;;;;4979193;28;20476;-71
2022/03/03 13:38:54;;;;;;;7.38;4.82;;;;;;;;;;4996013;28;20036;-72
2022/03/03 13:41:21;;;;;;;6.75;4.78;;;;;;;;;;4992718;28;20026;-72
2022/03/03 13:43:46;;;;;;;8.90;5.00;;;;;;;;;;4998549;28;20531;-69
2022/03/03 13:46:11;;;;;;;8.50;4.27;;;;;;;;;;4996937;28;20022;-71
2022/03/03 13:48:36;;;;;;;5.83;4.37;;;;;;;;;;4989376;28;20033;-69
2022/03/03 13:51:02;;;;;;;5.57;4.33;;;;;;;;;;4997687;28;20040;-71
2022/03/03 13:53:28;;;;;;;6.75;4.28;;;;;;;;;;4986760;28;20762;-70
2022/03/03 13:55:57;;;;;;;8.95;4.70;;;;;;;;;;4990226;28;20037;-69
2022/03/03 13:58:23;;;;;;;8.38;4.15;;;;;;;;;;4998614;28;20028;-71
2022/03/03 14:00:48;;;;;;;8.38;4.30;;;;;;;;;;4998075;28;20574;-70
2022/03/03 14:03:15;;;;;;;6.53;3.80;;;;;;;;;;4999336;28;20507;-70
2022/03/03 14:05:46;;;;;;;5.95;4.00;;;;;;;;;;5004599;28;20022;-71
2022/03/03 14:08:16;;;;;;;5.28;3.90;;;;;;;;;;4994980;28;20595;-69
2022/03/03 14:10:51;;;;;;;5.82;3.78;;;;;;;;;;5004062;28;20018;-71
2022/03/03 14:13:17;;;;;;;7.28;3.97;;;;;;;;;;4991703;28;20048;-73
2022/03/03 14:15:44;;;;;;;4.55;3.20;;;;;;;;;;5004299;28;20036;-71
2022/03/03 14:18:09;;;;;;;4.93;3.15;;;;;;;;;;5000350;28;20022;-70
2022/03/03 14:20:35;;;;;;;6.00;3.60;;;;;;;;;;4994138;28;20446;-68
2022/03/03 14:23:00;;;;;;;6.67;3.70;;;;;;;;;;4990440;28;20062;-71
2022/03/03 14:25:26;;;;;;;4.43;3.33;;;;;;;;;;4995137;28;20491;-71
2022/03/03 14:27:52;;;;;;;5.40;3.40;;;;;;;;;;4999948;28;20667;-71
2022/03/03 14:30:18;;;;;;;4.82;3.40;;;;;;;;;;5002395;28;20839;-70